createdAt,value
2023-05-19T00:01:45.587Z,96845.25
2023-05-19T00:04:17.921Z,96901.09
2023-05-19T00:06:52.102Z,96885.66
2023-05-19T00:09:28.022Z,96913.53
2023-05-19T00:11:58.833Z,96905.25
2023-05-19T00:14:27.111Z,96906.88
2023-05-19T00:16:56.199Z,96911.09
2023-05-19T00:19:25.030Z,96885.63
2023-05-19T00:21:55.038Z,96902.91
2023-05-19T00:24:24.462Z,96906.34
2023-05-19T00:26:52.785Z,96893.59
2023-05-19T00:29:26.658Z,96911.63
2023-05-19T00:31:54.554Z,96908.19
2023-05-19T00:34:27.363Z,96904.78
2023-05-19T00:37:00.759Z,96908.22
2023-05-19T00:39:33.179Z,96902.91
2023-05-19T00:42:03.844Z,96903.75
2023-05-19T00:44:34.566Z,96902.69
2023-05-19T00:47:04.730Z,96900.09
2023-05-19T00:49:46.209Z,96862.38
2023-05-19T00:52:14.031Z,96870.53
2023-05-19T00:54:50.097Z,96892.56
2023-05-19T00:57:20.938Z,96932.53
2023-05-19T00:59:49.879Z,96883.88
2023-05-19T01:02:21.821Z,96890.28
2023-05-19T01:04:53.804Z,96887.03
2023-05-19T01:07:26.023Z,96884.41
2023-05-19T01:09:55.481Z,96889.19
2023-05-19T01:12:26.001Z,96883.84
2023-05-19T01:14:54.188Z,96896.88
2023-05-19T01:17:25.827Z,96892.63
2023-05-19T01:20:06.655Z,96893.69
2023-05-19T01:22:57.608Z,96897.63
2023-05-19T01:25:42.552Z,96893.38
2023-05-19T01:28:53.396Z,96908.28
2023-05-19T01:31:24.572Z,96888.63
2023-05-19T01:34:04.683Z,96906.69
2023-05-19T01:36:33.968Z,96169.31
2023-05-19T01:39:03.982Z,96895.81
2023-05-19T01:41:32.957Z,96862.03
2023-05-19T01:44:04.615Z,96855.66
2023-05-19T01:46:34.094Z,96890.72
2023-05-19T01:49:05.185Z,96888.31
2023-05-19T01:51:39.891Z,96894.94
2023-05-19T01:54:09.788Z,96886.69
2023-05-19T01:56:43.262Z,96897.28
2023-05-19T01:59:24.404Z,96903.59
2023-05-19T02:02:01.046Z,96897.78
2023-05-19T02:04:40.305Z,96894.59
2023-05-19T02:07:15.705Z,96898.25
2023-05-19T02:09:53.448Z,96903.81
2023-05-19T02:12:25.963Z,96869.47
2023-05-19T02:15:06.984Z,96906.09
2023-05-19T02:17:47.793Z,96818.63
2023-05-19T02:20:19.842Z,96897.72
2023-05-19T02:22:49.467Z,96897.97
2023-05-19T02:25:25.981Z,96896.94
2023-05-19T02:27:54.157Z,96893.81
2023-05-19T02:30:25.318Z,96902.53
2023-05-19T02:32:58.946Z,96898.56
2023-05-19T02:35:27.983Z,96901.22
2023-05-19T02:37:55.868Z,96901.50
2023-05-19T02:40:26.480Z,96866.16
2023-05-19T02:43:00.265Z,96876.19
2023-05-19T02:45:29.736Z,96889.25
2023-05-19T02:48:03.624Z,96883.88
2023-05-19T02:50:35.104Z,96887.38
2023-05-19T02:53:05.706Z,96884.06
2023-05-19T02:55:33.790Z,96885.72
2023-05-19T02:58:01.763Z,96886.53
2023-05-19T03:00:32.282Z,96881.22
2023-05-19T03:03:04.584Z,96870.78
2023-05-19T03:05:32.617Z,96872.78
2023-05-19T03:08:00.702Z,96865.94
2023-05-19T03:10:34.151Z,96886.91
2023-05-19T03:13:09.357Z,96865.25
2023-05-19T03:15:37.219Z,96878.63
2023-05-19T03:18:08.503Z,96860.63
2023-05-19T03:20:36.336Z,96878.38
2023-05-19T03:23:04.204Z,96870.16
2023-05-19T03:25:40.925Z,96852.13
2023-05-19T03:28:08.813Z,96875.53
2023-05-19T03:30:38.463Z,96870.16
2023-05-19T03:33:10.095Z,96864.63
2023-05-19T03:35:38.007Z,96838.84
2023-05-19T03:38:05.761Z,96870.25
2023-05-19T03:40:38.888Z,96832.56
2023-05-19T03:43:17.888Z,96808.66
2023-05-19T03:45:45.772Z,96875.66
2023-05-19T03:48:19.131Z,96877.19
2023-05-19T03:50:49.530Z,96876.13
2023-05-19T03:53:17.400Z,96732.16
2023-05-19T03:55:50.714Z,96880.63
2023-05-19T03:58:18.862Z,96881.69
2023-05-19T04:00:47.030Z,96884.91
2023-05-19T04:03:19.840Z,96884.63
2023-05-19T04:05:48.316Z,96881.44
2023-05-19T04:08:18.057Z,96894.09
2023-05-19T04:10:45.882Z,96875.41
2023-05-19T04:13:14.905Z,96887.66
2023-05-19T04:15:43.862Z,96877.50
2023-05-19T04:18:11.750Z,96863.09
2023-05-19T04:20:46.087Z,96881.09
2023-05-19T04:23:13.936Z,96835.97
2023-05-19T04:25:48.738Z,96894.59
2023-05-19T04:28:16.815Z,96897.31
2023-05-19T04:30:50.594Z,96887.75
2023-05-19T04:33:21.530Z,96878.66
2023-05-19T04:35:52.863Z,96898.22
2023-05-19T04:38:25.760Z,96894.88
2023-05-19T04:40:53.730Z,96902.75
2023-05-19T04:43:22.293Z,96900.16
2023-05-19T04:46:01.627Z,96898.44
2023-05-19T04:48:31.022Z,96897.13
2023-05-19T04:51:01.620Z,96637.59
2023-05-19T04:53:33.016Z,96889.38
2023-05-19T04:56:02.135Z,96901.03
2023-05-19T04:58:31.389Z,96891.59
2023-05-19T05:01:01.835Z,96900.00
2023-05-19T05:03:31.029Z,96849.03
2023-05-19T05:06:00.373Z,96888.91
2023-05-19T05:08:32.558Z,96901.66
2023-05-19T05:11:02.919Z,96900.03
2023-05-19T05:13:34.248Z,96904.25
2023-05-19T05:16:05.053Z,96888.53
2023-05-19T05:18:34.899Z,96887.72
2023-05-19T05:21:06.063Z,96888.03
2023-05-19T05:23:40.403Z,96895.16
2023-05-19T05:26:23.099Z,96898.34
2023-05-19T05:28:52.248Z,96903.09
2023-05-19T05:31:26.501Z,96914.13
2023-05-19T05:33:57.192Z,96700.38
2023-05-19T05:36:29.534Z,96900.44
2023-05-19T05:38:57.326Z,96888.28
2023-05-19T05:41:28.096Z,96897.91
2023-05-19T05:43:57.796Z,96891.56
2023-05-19T05:46:28.679Z,96894.50
2023-05-19T05:49:01.384Z,96900.63
2023-05-19T05:51:32.875Z,96890.75
2023-05-19T05:54:03.897Z,96901.16
2023-05-19T05:56:33.739Z,96843.16
2023-05-19T05:59:07.024Z,96893.63
2023-05-19T06:01:35.969Z,96896.03
2023-05-19T06:04:06.720Z,96859.66
2023-05-19T06:06:41.651Z,96904.56
2023-05-19T06:09:09.420Z,96907.75
2023-05-19T06:11:37.530Z,96882.00
2023-05-19T06:14:05.767Z,96901.16
2023-05-19T06:16:34.084Z,96900.09
2023-05-19T06:19:04.172Z,96898.44
2023-05-19T06:21:46.196Z,96904.78
2023-05-19T06:24:16.719Z,96906.56
2023-05-19T06:26:50.078Z,96921.22
2023-05-19T06:29:18.532Z,96901.31
2023-05-19T06:31:49.842Z,96661.91
2023-05-19T06:34:18.086Z,96637.50
2023-05-19T06:36:45.862Z,96899.53
2023-05-19T06:39:18.182Z,96904.03
2023-05-19T06:41:46.431Z,96901.38
2023-05-19T06:44:15.586Z,96904.63
2023-05-19T06:46:44.404Z,96901.16
2023-05-19T06:49:12.291Z,96867.38
2023-05-19T06:51:43.082Z,96900.56
2023-05-19T06:54:16.407Z,96903.22
2023-05-19T06:56:46.146Z,96907.78
2023-05-19T06:59:16.874Z,96905.94
2023-05-19T07:01:45.076Z,96909.13
2023-05-19T07:04:13.359Z,96908.22
2023-05-19T07:06:41.693Z,96901.56
2023-05-19T07:09:10.606Z,96887.50
2023-05-19T07:11:39.361Z,96903.59
2023-05-19T07:14:09.202Z,96902.03
2023-05-19T07:16:37.658Z,96871.84
2023-05-19T07:19:06.033Z,96900.41
2023-05-19T07:21:46.289Z,96901.16
2023-05-19T07:24:15.652Z,96895.84
2023-05-19T07:26:46.519Z,96891.59
2023-05-19T07:29:19.926Z,96887.50
2023-05-19T07:31:48.075Z,96905.34
2023-05-19T07:34:15.956Z,96895.81
2023-05-19T07:36:43.936Z,96895.13
2023-05-19T07:39:13.798Z,96883.44
2023-05-19T07:41:41.850Z,96895.19
2023-05-19T07:44:10.434Z,96888.31
2023-05-19T07:46:40.109Z,96857.41
2023-05-19T07:49:08.272Z,96889.78
2023-05-19T07:51:38.953Z,96888.88
2023-05-19T07:54:09.026Z,96892.56
2023-05-19T07:56:36.899Z,96878.94
2023-05-19T07:59:08.405Z,96888.13
2023-05-19T08:01:38.569Z,96886.28
2023-05-19T08:04:10.296Z,96841.34
2023-05-19T08:06:44.673Z,96875.81
2023-05-19T08:09:13.092Z,96834.91
2023-05-19T08:11:42.479Z,96857.69
2023-05-19T08:14:10.907Z,96864.34
2023-05-19T08:16:38.737Z,96862.97
2023-05-19T08:19:10.311Z,96815.03
2023-05-19T08:21:42.271Z,96873.28
2023-05-19T08:24:11.425Z,96863.94
2023-05-19T08:26:39.727Z,96796.59
2023-05-19T08:29:08.698Z,96860.91
2023-05-19T08:31:36.508Z,96844.13
2023-05-19T08:34:04.948Z,96865.44
2023-05-19T08:36:36.494Z,96853.47
2023-05-19T08:39:09.405Z,96849.88
2023-05-19T08:41:39.711Z,96852.47
2023-05-19T08:44:15.700Z,96855.16
2023-05-19T08:46:44.929Z,96842.34
2023-05-19T08:49:15.734Z,96809.00
2023-05-19T08:51:49.486Z,96848.03
2023-05-19T08:54:18.422Z,96842.50
2023-05-19T08:56:47.166Z,96847.59
2023-05-19T08:59:15.754Z,96841.78
2023-05-19T09:01:47.148Z,96833.56
2023-05-19T09:04:20.266Z,96840.59
2023-05-19T09:06:50.323Z,96838.50
2023-05-19T09:09:25.277Z,96851.47
2023-05-19T09:11:57.326Z,96855.13
2023-05-19T09:14:25.472Z,96848.19
2023-05-19T09:16:59.191Z,96834.56
2023-05-19T09:19:43.383Z,96837.97
2023-05-19T09:22:17.977Z,96845.47
2023-05-19T09:24:47.151Z,96843.88
2023-05-19T09:27:16.580Z,96853.00
2023-05-19T09:29:44.972Z,96833.91
2023-05-19T09:32:15.156Z,96853.00
2023-05-19T09:34:43.860Z,96846.59
2023-05-19T09:37:14.310Z,96844.16
2023-05-19T09:39:48.561Z,96847.66
2023-05-19T09:42:18.800Z,96851.00
2023-05-19T09:44:51.544Z,96843.38
2023-05-19T09:47:20.634Z,96835.00
2023-05-19T09:49:49.245Z,96807.03
2023-05-19T09:52:18.498Z,96848.75
2023-05-19T09:54:46.912Z,96838.00
2023-05-19T09:57:15.483Z,96824.97
2023-05-19T09:59:45.310Z,96839.94
2023-05-19T10:02:18.255Z,96835.97
2023-05-19T10:04:47.723Z,96836.09
2023-05-19T10:07:19.278Z,96844.63
2023-05-19T10:09:50.325Z,96850.34
2023-05-19T10:12:24.613Z,96830.22
2023-05-19T10:14:54.845Z,96840.47
2023-05-19T10:17:26.751Z,96850.56
2023-05-19T10:20:00.198Z,96820.50
2023-05-19T10:22:31.047Z,96826.97
2023-05-19T10:25:00.848Z,96832.41
2023-05-19T10:27:30.119Z,96792.75
2023-05-19T10:30:05.919Z,96819.78
2023-05-19T10:32:35.197Z,96828.84
2023-05-19T10:35:34.545Z,96821.78
2023-05-19T10:38:11.067Z,96784.06
2023-05-19T10:40:55.505Z,96825.34
2023-05-19T10:43:27.358Z,96743.50
2023-05-19T10:45:56.397Z,96826.13
2023-05-19T10:48:26.740Z,96814.13
2023-05-19T10:51:00.213Z,96798.00
2023-05-19T10:53:32.837Z,96820.25
2023-05-19T10:56:04.523Z,96818.34
2023-05-19T10:58:50.240Z,96819.84
2023-05-19T11:01:18.949Z,96823.38
2023-05-19T11:03:48.468Z,96780.91
2023-05-19T11:06:24.596Z,96826.41
2023-05-19T11:08:58.258Z,96830.44
2023-05-19T11:11:51.733Z,96830.25
2023-05-19T11:14:23.127Z,96830.53
2023-05-19T11:17:05.567Z,96835.72
2023-05-19T11:19:35.522Z,96821.94
2023-05-19T11:22:11.932Z,96818.59
2023-05-19T11:24:44.595Z,96738.84
2023-05-19T11:27:24.881Z,96783.66
2023-05-19T11:29:53.586Z,96822.34
2023-05-19T11:32:27.213Z,96816.88
2023-05-19T11:34:56.535Z,96778.53
2023-05-19T11:37:24.814Z,96811.59
2023-05-19T11:40:14.227Z,96812.56
2023-05-19T11:42:44.875Z,96814.50
2023-05-19T11:45:13.053Z,96806.72
2023-05-19T11:47:59.631Z,96812.63
2023-05-19T11:50:29.045Z,96802.06
2023-05-19T11:53:03.063Z,96815.91
2023-05-19T11:55:31.472Z,96798.50
2023-05-19T11:58:04.528Z,96802.44
2023-05-19T12:00:40.832Z,96802.91
2023-05-19T12:03:09.563Z,96796.47
2023-05-19T12:05:42.755Z,96795.06
2023-05-19T12:08:16.908Z,96796.28
2023-05-19T12:10:46.139Z,96804.94
2023-05-19T12:13:16.594Z,96805.50
2023-05-19T12:15:49.834Z,96800.03
2023-05-19T12:18:17.822Z,96805.28
2023-05-19T12:20:47.591Z,96795.47
2023-05-19T12:23:16.600Z,96807.94
2023-05-19T12:25:50.623Z,96809.63
2023-05-19T12:28:23.067Z,96800.31
2023-05-19T12:30:55.026Z,96750.25
2023-05-19T12:33:24.354Z,96810.16
2023-05-19T12:35:52.732Z,96782.81
2023-05-19T12:38:23.820Z,96812.28
2023-05-19T12:40:52.169Z,96754.66
2023-05-19T12:43:25.200Z,96807.50
2023-05-19T12:45:56.745Z,96802.63
2023-05-19T12:48:26.491Z,96802.97
2023-05-19T12:50:57.150Z,96811.88
2023-05-19T12:53:29.229Z,96807.25
2023-05-19T12:55:57.177Z,96811.25
2023-05-19T12:58:35.469Z,96803.81
2023-05-19T13:01:05.680Z,96809.28
2023-05-19T13:03:33.694Z,96807.44
2023-05-19T13:06:07.961Z,96822.50
2023-05-19T13:08:36.357Z,96812.28
2023-05-19T13:11:06.716Z,96804.06
2023-05-19T13:13:35.976Z,96813.84
2023-05-19T13:16:03.855Z,96788.72
2023-05-19T13:18:34.716Z,96800.41
2023-05-19T13:21:04.085Z,96807.00
2023-05-19T13:23:33.030Z,96797.09
2023-05-19T13:26:05.236Z,96792.53
2023-05-19T13:28:37.177Z,96797.22
2023-05-19T13:31:05.170Z,96790.94
2023-05-19T13:33:33.724Z,96794.97
2023-05-19T13:36:02.132Z,96758.09
2023-05-19T13:38:30.411Z,96795.50
2023-05-19T13:41:09.386Z,96796.56
2023-05-19T13:43:39.795Z,96797.31
2023-05-19T13:46:11.331Z,96800.03
2023-05-19T13:48:41.360Z,96751.13
2023-05-19T13:51:10.307Z,96787.81
2023-05-19T13:53:39.994Z,96792.22
2023-05-19T13:56:07.945Z,96790.94
2023-05-19T13:58:41.000Z,96779.63
2023-05-19T14:01:09.425Z,96582.78
2023-05-19T14:03:37.319Z,96786.84
2023-05-19T14:06:09.264Z,96783.13
2023-05-19T14:08:37.428Z,96779.78
2023-05-19T14:11:07.928Z,96781.28
2023-05-19T14:13:41.895Z,96729.59
2023-05-19T14:16:13.122Z,96759.75
2023-05-19T14:18:42.262Z,96772.41
2023-05-19T14:21:14.307Z,96767.00
2023-05-19T14:23:44.682Z,96764.94
2023-05-19T14:26:15.612Z,96770.00
2023-05-19T14:28:47.124Z,96772.06
2023-05-19T14:31:16.473Z,96761.44
2023-05-19T14:33:46.598Z,96719.91
2023-05-19T14:36:17.205Z,96765.53
2023-05-19T14:38:45.160Z,96769.47
2023-05-19T14:41:16.146Z,96770.50
2023-05-19T14:43:49.978Z,96770.38
2023-05-19T14:46:19.241Z,96769.72
2023-05-19T14:48:53.621Z,96769.69
2023-05-19T14:51:21.604Z,96766.91
2023-05-19T14:53:50.292Z,96767.38
2023-05-19T14:56:23.382Z,96771.53
2023-05-19T14:58:55.481Z,96777.53
2023-05-19T15:01:27.288Z,96768.50
2023-05-19T15:03:55.623Z,96770.75
2023-05-19T15:06:25.636Z,96729.41
2023-05-19T15:08:53.519Z,96756.44
2023-05-19T15:11:24.538Z,96762.13
2023-05-19T15:13:52.491Z,96755.69
2023-05-19T15:16:23.033Z,96809.03
2023-05-19T15:18:52.521Z,96757.97
2023-05-19T15:21:20.446Z,96757.06
2023-05-19T15:23:48.304Z,96758.81
2023-05-19T15:26:16.191Z,96755.19
2023-05-19T15:28:46.808Z,96793.47
2023-05-19T15:31:15.903Z,96752.41
2023-05-19T15:33:46.686Z,96747.78
2023-05-19T15:36:17.521Z,96745.13
2023-05-19T15:38:45.458Z,96745.53
2023-05-19T15:41:13.370Z,96744.28
2023-05-19T15:43:42.004Z,96729.88
2023-05-19T15:46:11.879Z,96745.81
2023-05-19T15:48:42.092Z,96742.19
2023-05-19T15:51:11.406Z,96742.63
2023-05-19T15:53:41.389Z,96740.13
2023-05-19T15:56:13.059Z,96741.81
2023-05-19T15:58:41.389Z,96735.44
2023-05-19T16:01:09.620Z,96705.03
2023-05-19T16:03:37.842Z,96730.41
2023-05-19T16:06:07.298Z,96708.34
2023-05-19T16:08:35.207Z,96721.41
2023-05-19T16:11:15.781Z,96715.34
2023-05-19T16:13:44.804Z,96712.25
2023-05-19T16:16:12.951Z,96708.25
2023-05-19T16:18:53.788Z,96701.13
2023-05-19T16:21:22.117Z,96707.19
2023-05-19T16:23:50.048Z,96699.41
2023-05-19T16:26:19.572Z,96698.88
2023-05-19T16:28:53.233Z,96701.94
2023-05-19T16:31:25.277Z,96684.66
2023-05-19T16:33:55.922Z,96695.00
2023-05-19T16:36:23.777Z,96681.41
2023-05-19T16:38:54.453Z,96698.09
2023-05-19T16:41:27.658Z,96689.09
2023-05-19T16:43:58.347Z,96702.72
2023-05-19T16:46:26.950Z,96692.97
2023-05-19T16:49:17.477Z,96691.97
2023-05-19T16:51:47.582Z,96693.47
2023-05-19T16:54:20.917Z,96693.16
2023-05-19T16:56:51.411Z,96691.63
2023-05-19T16:59:19.874Z,96695.84
2023-05-19T17:01:53.326Z,96680.19
2023-05-19T17:04:28.716Z,96694.16
2023-05-19T17:06:58.469Z,96676.00
2023-05-19T17:09:29.563Z,96692.72
2023-05-19T17:12:01.622Z,96694.66
2023-05-19T17:14:29.385Z,96684.63
2023-05-19T17:17:04.824Z,96690.34
2023-05-19T17:19:32.881Z,96683.16
2023-05-19T17:22:00.760Z,96680.69
2023-05-19T17:24:35.501Z,96677.41
2023-05-19T17:27:07.991Z,96670.81
2023-05-19T17:29:38.543Z,96674.22
2023-05-19T17:32:06.857Z,96676.31
2023-05-19T17:34:34.717Z,96677.91
2023-05-19T17:37:09.961Z,96665.56
2023-05-19T17:39:37.769Z,96648.88
2023-05-19T17:42:10.287Z,96666.31
2023-05-19T17:44:38.155Z,96677.03
2023-05-19T17:47:08.060Z,96669.72
2023-05-19T17:49:35.973Z,96659.88
2023-05-19T17:52:04.332Z,96679.75
2023-05-19T17:54:33.014Z,96671.88
2023-05-19T17:57:08.500Z,96673.88
2023-05-19T17:59:40.572Z,96664.72
2023-05-19T18:02:09.853Z,96658.56
2023-05-19T18:04:38.728Z,96648.25
2023-05-19T18:07:08.670Z,96626.44
2023-05-19T18:09:41.503Z,96643.09
2023-05-19T18:12:11.879Z,96660.25
2023-05-19T18:14:41.367Z,96669.88
2023-05-19T18:17:10.880Z,96680.97
2023-05-19T18:19:41.377Z,96667.91
2023-05-19T18:22:12.934Z,96644.72
2023-05-19T18:24:43.499Z,96660.38
2023-05-19T18:27:11.315Z,96658.41
2023-05-19T18:29:42.366Z,96642.53
2023-05-19T18:32:16.889Z,96660.09
2023-05-19T18:34:45.289Z,96654.81
2023-05-19T18:37:13.117Z,96647.78
2023-05-19T18:39:43.464Z,96663.19
2023-05-19T18:42:14.029Z,96655.25
2023-05-19T18:44:42.266Z,96653.03
2023-05-19T18:47:13.989Z,96662.44
2023-05-19T18:49:43.373Z,96660.47
2023-05-19T18:52:13.779Z,96661.44
2023-05-19T18:54:45.945Z,96659.91
2023-05-19T18:57:16.516Z,96640.22
2023-05-19T18:59:53.374Z,96647.63
2023-05-19T19:02:21.156Z,96645.31
2023-05-19T19:04:53.229Z,96654.63
2023-05-19T19:07:21.132Z,96650.88
2023-05-19T19:09:49.167Z,96656.00
2023-05-19T19:12:24.178Z,96660.09
2023-05-19T19:14:55.071Z,96651.19
2023-05-19T19:17:24.964Z,96654.34
2023-05-19T19:20:00.495Z,96651.66
2023-05-19T19:22:30.926Z,96660.75
2023-05-19T19:25:08.438Z,96660.84
2023-05-19T19:27:40.643Z,96668.78
2023-05-19T19:30:12.106Z,96679.34
2023-05-19T19:32:41.107Z,96674.84
2023-05-19T19:35:13.718Z,96658.31
2023-05-19T19:37:42.011Z,96686.66
2023-05-19T19:40:10.782Z,96682.38
2023-05-19T19:42:59.105Z,96688.72
2023-05-19T19:45:34.719Z,96661.75
2023-05-19T19:48:02.662Z,96680.03
2023-05-19T19:50:34.030Z,96654.97
2023-05-19T19:53:09.859Z,96647.63
2023-05-19T19:55:40.008Z,96667.72
2023-05-19T19:58:10.232Z,96678.28
2023-05-19T20:00:40.731Z,96622.84
2023-05-19T20:03:08.647Z,96643.41
2023-05-19T20:05:39.539Z,96648.44
2023-05-19T20:08:14.049Z,96679.19
2023-05-19T20:10:43.320Z,96616.53
2023-05-19T20:13:11.187Z,96640.94
2023-05-19T20:15:39.053Z,96663.19
2023-05-19T20:18:06.935Z,96643.69
2023-05-19T20:20:35.039Z,96667.16
2023-05-19T20:23:04.955Z,96664.19
2023-05-19T20:25:36.100Z,96662.50
2023-05-19T20:28:04.964Z,96666.50
2023-05-19T20:30:34.792Z,96663.16
2023-05-19T20:33:06.893Z,96663.66
2023-05-19T20:35:40.507Z,96652.72
2023-05-19T20:38:12.717Z,96657.34
2023-05-19T20:40:40.941Z,96665.78
2023-05-19T20:43:08.783Z,96661.16
2023-05-19T20:45:39.716Z,96627.19
2023-05-19T20:48:07.619Z,96658.75
2023-05-19T20:50:35.498Z,96629.13
2023-05-19T20:53:03.371Z,96655.94
2023-05-19T20:55:36.141Z,96638.84
2023-05-19T20:58:04.224Z,96645.56
2023-05-19T21:00:32.645Z,96657.16
2023-05-19T21:03:00.883Z,96656.75
2023-05-19T21:05:29.197Z,96660.47
2023-05-19T21:07:57.117Z,96657.38
2023-05-19T21:10:25.993Z,96652.53
2023-05-19T21:12:56.347Z,96644.84
2023-05-19T21:15:24.593Z,96653.31
2023-05-19T21:17:55.329Z,96634.81
2023-05-19T21:20:23.308Z,96650.25
2023-05-19T21:22:53.929Z,96649.69
2023-05-19T21:25:22.358Z,96643.34
2023-05-19T21:27:58.810Z,96647.97
2023-05-19T21:30:31.062Z,96639.13
2023-05-19T21:32:59.345Z,96644.63
2023-05-19T21:35:27.252Z,96640.69
2023-05-19T21:37:57.390Z,96633.63
2023-05-19T21:40:25.286Z,96640.81
2023-05-19T21:42:53.378Z,96630.00
2023-05-19T21:45:21.232Z,96621.16
2023-05-19T21:47:56.690Z,96623.16
2023-05-19T21:50:27.052Z,96614.97
2023-05-19T21:52:54.856Z,96613.09
2023-05-19T21:55:24.526Z,96597.75
2023-05-19T21:57:52.341Z,96610.03
2023-05-19T22:00:20.191Z,96613.50
2023-05-19T22:02:48.073Z,96607.34
2023-05-19T22:05:17.782Z,96610.03
2023-05-19T22:07:46.812Z,96607.94
2023-05-19T22:10:15.055Z,96602.59
2023-05-19T22:12:43.157Z,96598.34
2023-05-19T22:15:13.421Z,96601.41
2023-05-19T22:17:47.548Z,96536.41
2023-05-19T22:20:17.363Z,96576.06
2023-05-19T22:22:47.200Z,96607.13
2023-05-19T22:25:17.448Z,96600.34
2023-05-19T22:27:47.751Z,96583.56
2023-05-19T22:30:17.969Z,96604.34
2023-05-19T22:32:45.744Z,96592.47
2023-05-19T22:35:13.610Z,96541.41
2023-05-19T22:37:43.119Z,96596.97
2023-05-19T22:40:13.910Z,96590.47
2023-05-19T22:42:46.938Z,96593.59
2023-05-19T22:45:15.837Z,96591.44
2023-05-19T22:47:47.947Z,96589.16
2023-05-19T22:50:21.744Z,96592.22
2023-05-19T22:52:53.837Z,96591.44
2023-05-19T22:55:22.821Z,96590.19
2023-05-19T22:57:51.067Z,96592.47
2023-05-19T23:00:20.825Z,96345.91
2023-05-19T23:02:48.678Z,96592.94
2023-05-19T23:05:20.018Z,96581.69
2023-05-19T23:07:49.138Z,96583.81
2023-05-19T23:10:22.148Z,96534.88
2023-05-19T23:12:51.902Z,96585.06
2023-05-19T23:15:21.067Z,96579.84
2023-05-19T23:17:50.666Z,96580.25
2023-05-19T23:20:24.019Z,96582.50
2023-05-19T23:22:51.848Z,96572.25
2023-05-19T23:25:21.049Z,96581.19
2023-05-19T23:27:50.942Z,96572.22
2023-05-19T23:30:21.583Z,96544.66
2023-05-19T23:33:03.827Z,96576.53
2023-05-19T23:35:41.900Z,96570.28
2023-05-19T23:38:10.895Z,96572.28
2023-05-19T23:40:43.925Z,96575.13
2023-05-19T23:43:14.557Z,96573.03
2023-05-19T23:45:42.997Z,96567.88
2023-05-19T23:48:11.188Z,96575.44
2023-05-19T23:50:42.983Z,96573.56
2023-05-19T23:53:10.716Z,96509.94
2023-05-19T23:55:40.857Z,96566.72
2023-05-19T23:58:11.804Z,96574.19
